Saturday, November 18, 2017, 9:37 PM GMT
Back to Local

CWNQ, Nicolet Automatic Weather Reporting System

Location: , , Canada Lat: 46.217
Local Time: 9:37 PM GMT (21:37 GMT) Lon: -72.65
Time Zone: GMT Elev: 32 ft

Show me the last for .
Show Coded

Time T Td Feel RH Dir Speed Gust Alt SLP Vis Weather Sky Remarks
2017-11-18 21:00 28 19 20 68 50° 8 - - 29.60 0 None
2017-11-18 20:00 28 18 20 67 60° 7 - - 29.61 0 None
2017-11-18 19:00 27 19 18 70 60° 9 - - 29.67 0 None
2017-11-18 18:00 27 19 18 72 60° 8 - - 29.72 0 None
2017-11-18 17:00 27 18 19 68 40° 7 - - 29.76 0 None
2017-11-18 16:00 26 18 18 70 40° 7 - - 29.79 0 None
2017-11-18 14:00 23 16 16 74 60° 6 - - 29.88 0 None
2017-11-18 13:00 22 15 17 76 90° 3 - - 29.92 0 None
2017-11-18 12:00 20 15 15 78 90° 3 - - 29.96 0 None
2017-11-18 11:00 20 15 14 79 80° 5 - - 29.96 0 None
2017-11-18 10:00 20 15 - 81 100° 2 - - 29.98 0 None
2017-11-18 09:00 20 15 15 80 80° 3 - - 29.98 0 None
2017-11-18 08:00 20 15 - 81 70° 2 - - 29.99 0 None
2017-11-18 07:00 22 14 - 72 10° 2 - - 30.01 0 None
2017-11-18 06:00 22 15 18 71 340° 3 - - 30.00 0 None
2017-11-18 05:00 23 15 17 70 340° 5 - - 30.03 0 None
2017-11-18 04:00 23 14 - 67 350° 2 - - 30.03 0 None
2017-11-18 03:00 24 15 17 66 320° 6 - - 30.05 0 None
2017-11-18 02:00 25 16 18 66 310° 7 - - 30.06 0 None
2017-11-18 01:00 26 16 21 64 320° 5 - - 30.04 0 None
2017-11-18 00:00 28 19 19 67 300° 9 - - 30.05 0 Peak wind: 20 mph (18 kts) from 290° at 17 min
2017-11-17 23:00 29 17 17 61 290° 12 17 - 30.05 0 None
2017-11-17 22:00 29 17 21 60 300° 9 - - 30.03 0 None

Support USWX by starting your Amazon purchase here.